createdAt,value
2022-12-31T00:00:13.756Z,9.48
2022-12-31T00:02:40.758Z,8.30
2022-12-31T00:05:08.052Z,6.78
2022-12-31T00:10:04.466Z,9.63
2022-12-31T00:12:31.347Z,9.68
2022-12-31T00:14:58.182Z,10.40
2022-12-31T00:17:25.029Z,12.05
2022-12-31T00:19:51.828Z,10.45
2022-12-31T00:22:18.656Z,11.05
2022-12-31T00:24:45.479Z,10.43
2022-12-31T00:27:12.362Z,11.15
2022-12-31T00:29:39.191Z,10.10
2022-12-31T00:32:06.137Z,11.57
2022-12-31T00:34:32.924Z,7.38
2022-12-31T00:36:59.850Z,10.70
2022-12-31T00:39:26.659Z,10.88
2022-12-31T00:41:53.652Z,9.48
2022-12-31T00:44:20.586Z,8.63
2022-12-31T00:46:48.336Z,9.57
2022-12-31T00:49:15.352Z,6.43
2022-12-31T00:51:42.205Z,9.93
2022-12-31T00:54:10.097Z,8.57
2022-12-31T00:56:36.926Z,15.48
2022-12-31T00:59:03.865Z,14.38
2022-12-31T01:01:33.127Z,6.57
2022-12-31T01:04:10.907Z,10.43
2022-12-31T01:06:38.029Z,11.50
2022-12-31T01:09:05.667Z,10.02
2022-12-31T01:11:32.508Z,12.30
2022-12-31T01:14:01.262Z,10.43
2022-12-31T01:16:29.016Z,11.50
2022-12-31T01:18:56.884Z,10.80
2022-12-31T01:21:23.782Z,13.20
2022-12-31T01:23:50.690Z,14.02
2022-12-31T01:26:18.072Z,12.82
2022-12-31T01:28:45.294Z,8.85
2022-12-31T01:31:14.104Z,11.07
2022-12-31T01:33:41.476Z,11.05
2022-12-31T01:36:21.738Z,15.73
2022-12-31T01:38:52.079Z,11.90
2022-12-31T01:41:20.760Z,13.57
2022-12-31T01:43:58.794Z,9.40
2022-12-31T01:46:41.970Z,10.55
2022-12-31T01:49:26.064Z,10.70
2022-12-31T01:51:56.316Z,15.15
2022-12-31T01:54:24.222Z,11.13
2022-12-31T01:56:51.217Z,12.23
2022-12-31T01:59:18.137Z,10.80
2022-12-31T02:01:48.222Z,16.30
2022-12-31T02:04:15.288Z,13.18
2022-12-31T02:06:47.116Z,11.32
2022-12-31T02:09:14.131Z,6.30
2022-12-31T02:11:40.945Z,10.80
2022-12-31T02:14:15.408Z,10.05
2022-12-31T02:16:51.403Z,11.30
2022-12-31T02:19:39.347Z,10.38
2022-12-31T02:22:22.841Z,11.43
2022-12-31T02:24:49.927Z,8.88
2022-12-31T02:27:23.919Z,8.60
2022-12-31T02:30:32.101Z,7.78
2022-12-31T02:33:15.087Z,8.65
2022-12-31T02:35:46.881Z,8.77
2022-12-31T02:38:25.704Z,10.75
2022-12-31T02:40:56.108Z,6.15
2022-12-31T02:43:23.675Z,7.95
2022-12-31T02:46:21.190Z,8.75
2022-12-31T02:48:52.962Z,9.60
2022-12-31T02:51:25.305Z,10.55
2022-12-31T02:54:17.434Z,10.93
2022-12-31T02:57:10.738Z,7.00
2022-12-31T03:00:10.347Z,7.68
2022-12-31T03:02:38.083Z,6.20
2022-12-31T03:05:05.195Z,9.07
2022-12-31T03:07:32.674Z,5.05
2022-12-31T03:09:59.908Z,7.05
2022-12-31T03:12:47.198Z,6.38
2022-12-31T03:15:21.497Z,6.97
2022-12-31T03:17:56.991Z,7.80
2022-12-31T03:20:50.892Z,5.25
2022-12-31T03:23:28.565Z,3.55
2022-12-31T03:25:56.520Z,5.60
2022-12-31T03:28:25.050Z,3.90
2022-12-31T03:30:54.518Z,5.43
2022-12-31T03:33:21.782Z,3.88
2022-12-31T03:35:48.956Z,4.13
2022-12-31T03:38:16.205Z,3.83
2022-12-31T03:40:45.068Z,5.10
2022-12-31T03:43:11.998Z,1.92
2022-12-31T03:45:38.917Z,3.63
2022-12-31T03:48:06.979Z,3.13
2022-12-31T03:50:33.963Z,1.13
2022-12-31T03:53:00.975Z,1.08
2022-12-31T03:55:27.972Z,0.95
2022-12-31T03:57:54.772Z,1.33
2022-12-31T04:00:21.946Z,1.80
2022-12-31T04:02:49.178Z,1.75
2022-12-31T04:05:16.336Z,1.15
2022-12-31T04:07:43.241Z,1.58
2022-12-31T04:10:11.970Z,1.38
2022-12-31T04:12:39.107Z,1.48
2022-12-31T04:15:06.840Z,1.63
2022-12-31T04:17:33.731Z,1.45
2022-12-31T04:20:02.997Z,1.80
2022-12-31T04:22:29.826Z,1.65
2022-12-31T04:24:56.699Z,0.82
2022-12-31T04:27:23.528Z,1.13
2022-12-31T04:29:50.613Z,1.33
2022-12-31T04:32:17.483Z,1.98
2022-12-31T04:34:44.347Z,3.53
2022-12-31T04:37:11.198Z,3.35
2022-12-31T04:39:38.018Z,2.80
2022-12-31T04:42:04.876Z,4.25
2022-12-31T04:44:34.826Z,5.35
2022-12-31T04:47:02.088Z,4.72
2022-12-31T04:49:28.969Z,6.60
2022-12-31T04:51:55.894Z,4.38
2022-12-31T04:54:22.829Z,5.85
2022-12-31T04:56:49.668Z,6.53
2022-12-31T04:59:16.475Z,6.78
2022-12-31T05:01:43.493Z,8.10
2022-12-31T05:04:10.404Z,7.20
2022-12-31T05:06:37.250Z,7.57
2022-12-31T05:09:04.211Z,11.82
2022-12-31T05:11:31.018Z,14.77
2022-12-31T05:13:57.870Z,12.13
2022-12-31T05:16:24.870Z,12.00
2022-12-31T05:18:51.687Z,12.88
2022-12-31T05:21:20.826Z,12.98
2022-12-31T05:23:47.991Z,12.27
2022-12-31T05:26:15.309Z,10.77
2022-12-31T05:28:42.257Z,11.60
2022-12-31T05:31:09.340Z,9.20
2022-12-31T05:33:36.201Z,9.07
2022-12-31T05:36:03.159Z,9.90
2022-12-31T05:38:30.050Z,9.70
2022-12-31T05:41:04.363Z,9.70
2022-12-31T05:43:31.745Z,10.65
2022-12-31T05:46:02.468Z,8.88
2022-12-31T05:48:29.511Z,9.27
2022-12-31T05:50:56.380Z,13.70
2022-12-31T05:53:23.339Z,7.85
2022-12-31T05:55:50.187Z,9.20
2022-12-31T05:58:17.195Z,10.25
2022-12-31T06:00:44.081Z,10.45
2022-12-31T06:03:11.169Z,12.57
2022-12-31T06:05:42.249Z,9.55
2022-12-31T06:08:09.715Z,13.20
2022-12-31T06:10:36.549Z,9.20
2022-12-31T06:13:03.538Z,15.00
2022-12-31T06:15:30.409Z,15.88
2022-12-31T06:17:57.395Z,12.68
2022-12-31T06:20:24.214Z,12.80
2022-12-31T06:22:51.265Z,13.20
2022-12-31T06:25:18.704Z,15.18
2022-12-31T06:27:45.592Z,12.50
2022-12-31T06:30:13.005Z,14.18
2022-12-31T06:32:40.767Z,14.55
2022-12-31T06:35:07.965Z,12.90
2022-12-31T06:37:34.870Z,14.20
2022-12-31T06:40:01.770Z,16.60
2022-12-31T06:42:30.867Z,12.20
2022-12-31T06:44:58.570Z,14.85
2022-12-31T06:47:25.883Z,12.48
2022-12-31T06:49:53.348Z,16.45
2022-12-31T06:52:20.626Z,15.52
2022-12-31T06:54:47.789Z,13.82
2022-12-31T06:57:15.039Z,11.63
2022-12-31T06:59:42.225Z,15.65
2022-12-31T07:02:36.768Z,14.85
2022-12-31T07:05:26.799Z,13.27
2022-12-31T07:08:18.414Z,18.55
2022-12-31T07:10:56.326Z,12.57
2022-12-31T07:13:52.220Z,14.48
2022-12-31T07:17:01.766Z,10.55
2022-12-31T07:19:31.829Z,8.68
2022-12-31T07:21:58.948Z,9.23
2022-12-31T07:24:26.490Z,10.15
2022-12-31T07:27:38.500Z,10.48
2022-12-31T07:30:11.796Z,12.73
2022-12-31T07:33:09.223Z,10.73
2022-12-31T07:35:50.095Z,14.43
2022-12-31T07:38:48.149Z,10.88
2022-12-31T07:41:48.576Z,13.73
2022-12-31T07:44:25.324Z,16.07
2022-12-31T07:46:59.779Z,14.82
2022-12-31T07:49:28.231Z,13.45
2022-12-31T07:51:55.597Z,12.95
2022-12-31T07:54:22.474Z,13.15
2022-12-31T07:56:49.655Z,11.25
2022-12-31T07:59:49.979Z,15.10
2022-12-31T08:02:25.745Z,13.68
2022-12-31T08:05:13.901Z,17.30
2022-12-31T08:07:46.375Z,13.55
2022-12-31T08:10:43.579Z,16.10
2022-12-31T08:13:11.223Z,16.13
2022-12-31T08:15:39.327Z,16.33
2022-12-31T08:18:06.838Z,14.60
2022-12-31T08:20:34.424Z,19.30
2022-12-31T08:23:27.757Z,16.90
2022-12-31T08:26:06.896Z,17.17
2022-12-31T08:28:52.835Z,15.73
2022-12-31T08:31:21.546Z,15.00
2022-12-31T08:34:05.526Z,19.80
2022-12-31T08:36:38.949Z,20.38
2022-12-31T08:39:40.014Z,16.02
2022-12-31T08:42:25.744Z,18.20
2022-12-31T08:44:56.011Z,20.52
2022-12-31T08:47:32.881Z,19.05
2022-12-31T08:50:02.726Z,14.52
2022-12-31T08:52:30.387Z,16.13
2022-12-31T08:54:57.509Z,16.77
2022-12-31T08:57:41.037Z,22.60
2022-12-31T09:00:17.076Z,18.70
2022-12-31T09:02:52.576Z,18.77
2022-12-31T09:05:29.593Z,19.65
2022-12-31T09:08:08.646Z,17.05
2022-12-31T09:10:42.126Z,15.70
2022-12-31T09:13:40.303Z,18.42
2022-12-31T09:16:44.867Z,19.30
2022-12-31T09:19:11.927Z,19.15
2022-12-31T09:21:44.384Z,12.35
2022-12-31T09:24:13.373Z,19.33
2022-12-31T09:27:27.863Z,14.73
2022-12-31T09:30:01.958Z,18.45
2022-12-31T09:32:31.559Z,17.17
2022-12-31T09:35:04.167Z,20.27
2022-12-31T09:37:45.582Z,15.25
2022-12-31T09:40:28.991Z,16.67
2022-12-31T09:43:01.866Z,16.40
2022-12-31T09:45:40.926Z,18.77
2022-12-31T09:48:26.681Z,15.65
2022-12-31T09:51:18.090Z,16.02
2022-12-31T09:54:02.303Z,16.33
2022-12-31T09:56:34.919Z,16.42
2022-12-31T09:59:24.103Z,18.50
2022-12-31T10:01:59.612Z,16.48
2022-12-31T10:04:56.258Z,15.30
2022-12-31T10:07:26.274Z,16.35
2022-12-31T10:09:56.316Z,11.60
2022-12-31T10:13:00.537Z,14.95
2022-12-31T10:15:41.671Z,16.92
2022-12-31T10:18:36.016Z,15.73
2022-12-31T10:21:12.670Z,9.63
2022-12-31T10:23:58.264Z,9.18
2022-12-31T10:26:59.363Z,9.95
2022-12-31T10:29:56.957Z,9.50
2022-12-31T10:32:33.601Z,8.48
2022-12-31T10:35:22.939Z,11.63
2022-12-31T10:38:20.635Z,8.18
2022-12-31T10:41:06.011Z,10.38
2022-12-31T10:43:57.552Z,6.35
2022-12-31T10:46:41.372Z,6.90
2022-12-31T10:49:43.283Z,8.00
2022-12-31T10:52:41.427Z,7.05
2022-12-31T10:55:42.662Z,5.45
2022-12-31T10:58:30.772Z,9.07
2022-12-31T11:01:03.777Z,7.97
2022-12-31T11:03:48.917Z,5.95
2022-12-31T11:06:49.471Z,7.13
2022-12-31T11:09:27.467Z,6.03
2022-12-31T11:12:28.245Z,7.47
2022-12-31T11:15:24.064Z,5.85
2022-12-31T11:18:07.151Z,4.53
2022-12-31T11:20:52.783Z,4.10
2022-12-31T11:23:29.888Z,4.72
2022-12-31T11:26:21.849Z,5.18
2022-12-31T11:29:19.764Z,3.22
2022-12-31T11:32:00.863Z,4.57
2022-12-31T11:34:52.600Z,6.30
2022-12-31T11:37:31.799Z,2.63
2022-12-31T11:40:21.945Z,3.13
2022-12-31T11:43:05.072Z,2.67
2022-12-31T11:45:51.109Z,3.00
2022-12-31T11:48:42.854Z,3.50
2022-12-31T11:51:30.715Z,1.85
2022-12-31T11:54:16.275Z,1.42
2022-12-31T11:56:46.449Z,2.42
2022-12-31T11:59:18.985Z,4.10
2022-12-31T12:02:04.535Z,2.40
2022-12-31T12:04:31.449Z,4.38
2022-12-31T12:06:58.305Z,6.40
2022-12-31T12:09:32.132Z,6.50
2022-12-31T12:12:04.418Z,9.90
2022-12-31T12:17:15.690Z,12.95
2022-12-31T12:19:44.688Z,14.80
2022-12-31T12:22:21.097Z,12.88
2022-12-31T12:25:05.896Z,19.77
2022-12-31T12:27:34.680Z,10.80
2022-12-31T12:30:20.807Z,14.80
2022-12-31T12:32:55.125Z,15.40
2022-12-31T12:35:40.052Z,16.33
2022-12-31T12:38:12.580Z,13.65
2022-12-31T12:40:39.779Z,12.07
2022-12-31T12:43:06.977Z,12.02
2022-12-31T12:45:49.021Z,15.18
2022-12-31T12:48:40.678Z,14.75
2022-12-31T12:51:32.764Z,11.32
2022-12-31T12:54:25.093Z,13.55
2022-12-31T12:56:54.796Z,10.50
2022-12-31T12:59:33.823Z,13.75
2022-12-31T13:02:30.160Z,12.80
2022-12-31T13:05:27.843Z,18.50
2022-12-31T13:07:58.403Z,11.48
2022-12-31T13:10:45.536Z,16.10
2022-12-31T13:13:44.742Z,14.95
2022-12-31T13:16:36.278Z,15.07
2022-12-31T13:19:18.646Z,16.02
2022-12-31T13:22:04.657Z,12.95
2022-12-31T13:24:46.725Z,13.73
2022-12-31T13:27:37.067Z,14.10
2022-12-31T13:30:13.172Z,20.42
2022-12-31T13:32:45.238Z,15.68
2022-12-31T13:35:51.894Z,18.45
2022-12-31T13:38:21.613Z,17.35
2022-12-31T13:40:58.574Z,19.27
2022-12-31T13:43:58.760Z,17.52
2022-12-31T13:46:28.400Z,18.83
2022-12-31T13:49:09.213Z,16.55
2022-12-31T13:51:48.261Z,18.63
2022-12-31T13:54:41.394Z,14.57
2022-12-31T13:57:34.939Z,14.25
2022-12-31T14:00:05.316Z,19.08
2022-12-31T14:02:44.477Z,14.70
2022-12-31T14:05:11.402Z,15.25
2022-12-31T14:07:53.884Z,17.67
2022-12-31T14:13:10.166Z,12.45
2022-12-31T14:15:39.959Z,14.70
2022-12-31T14:18:25.789Z,18.60
2022-12-31T14:21:24.263Z,18.90
2022-12-31T14:24:14.037Z,17.92
2022-12-31T14:26:43.817Z,14.25
2022-12-31T14:29:11.010Z,15.40
2022-12-31T14:31:58.974Z,18.98
2022-12-31T14:34:43.926Z,19.67
2022-12-31T14:38:03.098Z,18.70
2022-12-31T14:41:04.353Z,26.35
2022-12-31T14:43:51.145Z,30.95
2022-12-31T14:46:26.932Z,22.90
2022-12-31T14:49:05.942Z,24.38
2022-12-31T14:51:35.064Z,29.70
2022-12-31T14:54:02.164Z,27.45
2022-12-31T14:56:37.922Z,28.67
2022-12-31T14:59:29.520Z,25.10
2022-12-31T15:01:57.725Z,22.77
2022-12-31T15:04:44.728Z,31.65
2022-12-31T15:07:30.899Z,28.25
2022-12-31T15:10:13.033Z,30.27
2022-12-31T15:12:54.666Z,26.80
2022-12-31T15:15:33.304Z,26.33
2022-12-31T15:18:14.295Z,32.63
2022-12-31T15:21:02.932Z,31.27
2022-12-31T15:23:36.960Z,28.27
2022-12-31T15:26:04.007Z,30.35
2022-12-31T15:28:37.004Z,27.00
2022-12-31T15:31:18.622Z,30.75
2022-12-31T15:34:01.088Z,33.17
2022-12-31T15:36:32.600Z,32.70
2022-12-31T15:39:11.911Z,36.77
2022-12-31T15:42:35.480Z,32.55
2022-12-31T15:44:55.441Z,32.15
2022-12-31T15:47:37.100Z,33.55
2022-12-31T15:50:27.654Z,33.30
2022-12-31T15:52:56.464Z,33.33
2022-12-31T15:55:30.434Z,23.45
2022-12-31T15:58:02.407Z,29.02
2022-12-31T16:00:43.222Z,33.97
2022-12-31T16:03:22.652Z,30.58
2022-12-31T16:05:52.461Z,25.92
2022-12-31T16:08:29.770Z,31.90
2022-12-31T16:10:59.453Z,32.88
2022-12-31T16:13:27.176Z,27.17
2022-12-31T16:16:06.847Z,28.52
2022-12-31T16:18:40.715Z,28.42
2022-12-31T16:21:25.650Z,26.30
2022-12-31T16:23:57.493Z,29.02
2022-12-31T16:26:25.498Z,26.23
2022-12-31T16:28:52.406Z,27.75
2022-12-31T16:31:19.982Z,29.17
2022-12-31T16:33:47.088Z,30.35
2022-12-31T16:36:22.900Z,29.27
2022-12-31T16:38:49.851Z,35.80
2022-12-31T16:41:18.878Z,35.10
2022-12-31T16:43:50.068Z,31.88
2022-12-31T16:46:26.937Z,29.15
2022-12-31T16:48:59.354Z,34.13
2022-12-31T16:51:30.702Z,30.65
2022-12-31T16:53:57.673Z,38.75
2022-12-31T16:56:26.396Z,36.30
2022-12-31T16:58:57.207Z,27.38
2022-12-31T17:01:25.438Z,25.40
2022-12-31T17:03:56.833Z,32.42
2022-12-31T17:06:24.321Z,34.97
2022-12-31T17:08:58.708Z,26.75
2022-12-31T17:11:31.060Z,33.45
2022-12-31T17:16:25.753Z,27.55
2022-12-31T17:18:52.683Z,36.42
2022-12-31T17:21:26.410Z,32.28
2022-12-31T17:23:55.481Z,33.25
2022-12-31T17:26:30.335Z,32.97
2022-12-31T17:28:57.828Z,31.50
2022-12-31T17:31:35.126Z,28.55
2022-12-31T17:34:14.014Z,25.92
2022-12-31T17:36:42.008Z,27.70
2022-12-31T17:39:27.795Z,31.05
2022-12-31T17:41:56.555Z,33.58
2022-12-31T17:44:25.950Z,27.10
2022-12-31T17:46:53.031Z,29.58
2022-12-31T17:49:21.920Z,26.60
2022-12-31T17:51:48.793Z,28.27
2022-12-31T17:54:16.152Z,25.92
2022-12-31T17:56:43.503Z,24.85
2022-12-31T17:59:29.598Z,28.00
2022-12-31T18:02:10.085Z,28.33
2022-12-31T18:04:37.031Z,26.92
2022-12-31T18:07:03.881Z,28.25
2022-12-31T18:09:30.728Z,26.40
2022-12-31T18:12:04.137Z,30.30
2022-12-31T18:14:30.996Z,27.95
2022-12-31T18:16:57.888Z,31.85
2022-12-31T18:19:54.451Z,27.00
2022-12-31T18:22:20.881Z,36.10
2022-12-31T18:24:48.891Z,29.05
2022-12-31T18:27:17.250Z,23.88
2022-12-31T18:29:44.221Z,33.33
2022-12-31T18:32:14.778Z,25.05
2022-12-31T18:34:41.839Z,29.50
2022-12-31T18:37:21.311Z,23.85
2022-12-31T18:39:48.801Z,31.55
2022-12-31T18:42:17.243Z,30.48
2022-12-31T18:44:44.482Z,28.70
2022-12-31T18:47:15.444Z,28.75
2022-12-31T18:49:42.918Z,28.02
2022-12-31T18:52:13.248Z,27.35
2022-12-31T18:54:40.109Z,32.58
2022-12-31T18:57:06.975Z,29.13
2022-12-31T18:59:33.985Z,25.67
2022-12-31T19:02:00.913Z,29.88
2022-12-31T19:04:30.694Z,37.03
2022-12-31T19:06:57.727Z,33.08
2022-12-31T19:12:13.870Z,29.10
2022-12-31T19:14:40.908Z,39.08
2022-12-31T19:19:34.815Z,32.95
2022-12-31T19:22:02.603Z,31.08
2022-12-31T19:24:29.681Z,24.70
2022-12-31T19:27:00.407Z,28.05
2022-12-31T19:29:27.918Z,32.42
2022-12-31T19:31:54.817Z,31.88
2022-12-31T19:34:21.943Z,32.63
2022-12-31T19:36:51.249Z,31.63
2022-12-31T19:39:19.736Z,33.03
2022-12-31T19:41:58.460Z,32.88
2022-12-31T19:44:26.158Z,30.10
2022-12-31T19:46:53.137Z,28.02
2022-12-31T19:49:20.167Z,26.25
2022-12-31T19:51:47.018Z,33.88
2022-12-31T19:54:14.053Z,29.70
2022-12-31T19:56:40.920Z,28.17
2022-12-31T19:59:08.570Z,28.98
2022-12-31T20:01:35.545Z,31.73
2022-12-31T20:04:02.596Z,23.02
2022-12-31T20:06:29.432Z,26.13
2022-12-31T20:08:58.424Z,30.33
2022-12-31T20:11:25.429Z,33.53
2022-12-31T20:13:53.566Z,30.35
2022-12-31T20:16:21.969Z,31.00
2022-12-31T20:18:50.406Z,26.00
2022-12-31T20:21:20.719Z,28.55
2022-12-31T20:23:48.357Z,31.30
2022-12-31T20:26:15.263Z,29.40
2022-12-31T20:28:42.266Z,23.83
2022-12-31T20:31:10.622Z,24.90
2022-12-31T20:33:37.451Z,23.00
2022-12-31T20:36:05.331Z,24.48
2022-12-31T20:38:32.198Z,22.40
2022-12-31T20:41:16.131Z,28.63
2022-12-31T20:43:43.257Z,22.33
2022-12-31T20:46:15.412Z,29.67
2022-12-31T20:48:43.690Z,23.90
2022-12-31T20:51:10.659Z,23.77
2022-12-31T20:53:39.794Z,23.20
2022-12-31T20:56:09.377Z,22.98
2022-12-31T20:58:36.409Z,21.60
2022-12-31T21:01:05.944Z,22.23
2022-12-31T21:06:20.441Z,22.55
2022-12-31T21:08:48.161Z,24.35
2022-12-31T21:11:33.952Z,24.27
2022-12-31T21:14:01.406Z,23.25
2022-12-31T21:16:28.687Z,20.63
2022-12-31T21:18:55.854Z,21.58
2022-12-31T21:21:22.704Z,25.10
2022-12-31T21:23:49.668Z,18.85
2022-12-31T21:26:16.782Z,18.73
2022-12-31T21:28:43.709Z,17.33
2022-12-31T21:31:11.827Z,13.93
2022-12-31T21:33:45.327Z,16.33
2022-12-31T21:36:12.369Z,15.07
2022-12-31T21:38:39.334Z,15.95
2022-12-31T21:41:26.655Z,13.68
2022-12-31T21:43:53.552Z,17.25
2022-12-31T21:46:20.491Z,14.73
2022-12-31T21:48:47.434Z,15.85
2022-12-31T21:51:14.394Z,17.65
2022-12-31T21:53:41.260Z,11.38
2022-12-31T21:56:09.236Z,14.93
2022-12-31T21:58:43.617Z,16.40
2022-12-31T22:01:37.495Z,14.15
2022-12-31T22:04:04.756Z,13.15
2022-12-31T22:06:32.494Z,15.63
2022-12-31T22:08:59.382Z,14.43
2022-12-31T22:11:27.234Z,12.40
2022-12-31T22:13:54.284Z,14.40
2022-12-31T22:16:21.875Z,18.88
2022-12-31T22:18:49.004Z,17.08
2022-12-31T22:21:20.807Z,15.60
2022-12-31T22:23:49.571Z,16.15
2022-12-31T22:26:17.667Z,15.95
2022-12-31T22:28:44.868Z,20.13
2022-12-31T22:31:23.629Z,13.98
2022-12-31T22:33:50.523Z,17.65
2022-12-31T22:36:19.040Z,13.10
2022-12-31T22:38:46.046Z,15.80
2022-12-31T22:41:15.022Z,14.90
2022-12-31T22:43:44.385Z,13.57
2022-12-31T22:46:15.077Z,15.68
2022-12-31T22:48:44.485Z,17.35
2022-12-31T22:51:13.928Z,10.13
2022-12-31T22:53:41.427Z,18.90
2022-12-31T22:56:08.721Z,15.95
2022-12-31T22:58:35.783Z,11.80
2022-12-31T23:01:06.748Z,13.55
2022-12-31T23:03:33.845Z,12.55
2022-12-31T23:06:00.674Z,12.07
2022-12-31T23:08:27.536Z,16.45
2022-12-31T23:11:00.294Z,13.23
2022-12-31T23:13:50.664Z,16.42
2022-12-31T23:16:37.496Z,9.40
2022-12-31T23:19:23.180Z,13.32
2022-12-31T23:22:08.636Z,8.27
2022-12-31T23:24:35.606Z,13.55
2022-12-31T23:27:02.468Z,12.82
2022-12-31T23:29:29.510Z,11.60
2022-12-31T23:31:56.474Z,13.38
2022-12-31T23:34:23.384Z,12.20
2022-12-31T23:36:50.265Z,17.70
2022-12-31T23:39:17.157Z,9.50
2022-12-31T23:41:43.944Z,13.70
2022-12-31T23:44:12.229Z,9.27
2022-12-31T23:46:39.845Z,13.43
2022-12-31T23:49:06.952Z,14.63
2022-12-31T23:51:35.909Z,10.70
2022-12-31T23:54:03.975Z,11.00
2022-12-31T23:56:33.276Z,10.93
2022-12-31T23:59:00.178Z,12.85
